• Join FlightAware (Why Join?)
  • Login
  • US Flag 
03:43PM EDT


 

Airport Tracker/Info


-or-


 

Live Flight TrackerFlight Track Log ✈ N567MG ✈ 03-Dec-2013 ✈ KAPF - KVDI

Flight Track Log - Related Links

Times and Time Zones

All times are in EST time to prevent confusion due to time zone crossing. See the N567MG flight status page for this flight to view local times or setup timezone preferences in your user account.

Time Position Orientation Groundspeed Altitude Reporting Facility
EST Latitude Longitude Course Direction KTS MPH feet Rate Location/Type
12:29PM 26.4817 -81.8533 North 150 173 7,400  Level Miami Center
12:30PM 26.5275 -81.8553 358° North 176 203 7,500 60 Climbing Miami Center
12:31PM 26.5750 -81.8642 350° North 186 214 7,600 360 Climbing Miami Center
12:32PM 26.6169 -81.8661 358° North 158 182 8,300 600 Climbing Miami Center
12:33PM 26.6564 -81.8678 358° North 145 167 8,900 480 Climbing Miami Center
12:34PM 26.6961 -81.8694 358° North 145 167 9,300 300 Climbing Miami Center
12:35PM 26.8439 -81.7502 North  Level Estimated
12:35PM 26.7397 -81.8736 355° North 157 181 9,600  Level Miami Center
12:36PM 26.7919 -81.8736 360° North 167 192 9,500 -60 Descending Miami Center
12:37PM 26.8378 -81.8731 North 162 186 9,500  Level Miami Center
12:38PM 26.8817 -81.8728 360° North 162 186 9,500  Level Miami Center
12:39PM 26.9214 -81.8719 North 167 192 9,600  Climbing Miami Center
12:40PM 26.9694 -81.8694 North 173 199 9,600 -120 Level Miami Center
12:41PM 27.0236 -81.8717 358° North 179 206 9,400 -60 Descending Miami Center
12:42PM 27.0736 -81.8739 358° North 179 206 9,500  Climbing Miami Center
12:43PM 27.1214 -81.8806 353° North 179 206 9,400  Descending Miami Center
12:44PM 27.1714 -81.8828 358° North 179 206 9,500 60 Climbing Miami Center
12:45PM 27.2214 -81.8850 358° North 179 206 9,600  Climbing Miami Center
12:46PM 27.2694 -81.8894 355° North 179 206 9,500 -60 Descending Miami Center
12:47PM 27.3194 -81.8892 360° North 179 206 9,500  Level Miami Center
12:48PM 27.3672 -81.8914 358° North 179 206 9,500  Level Miami Center
12:49PM 27.4175 -81.8936 358° North 179 206 9,500  Level Miami Center
12:50PM 27.4653 -81.8933 360° North 179 206 9,500 -60 Level Miami Center
12:51PM 27.5156 -81.8933 360° North 179 206 9,400 -60 Descending Miami Center
12:52PM 27.5614 -81.8906 North 179 206 9,400  Level Miami Center
12:53PM 27.6094 -81.8903 360° North 179 206 9,400  Level Miami Center
12:54PM 27.6639 -81.8881 North 179 206 9,500  Climbing Miami Center
12:55PM 27.7100 -81.8831 North 179 206 9,500  Level Miami Center
12:56PM 27.7603 -81.8781 North 179 206 9,500  Level Miami Center
12:57PM 27.8019 -81.8775 North 179 206 9,500  Level Miami Center
12:58PM 27.8581 -81.8803 357° North 179 206 9,600  Climbing Miami Center
12:59PM 27.9019 -81.8819 358° North 179 206 9,500 -60 Descending Miami Center
01:00PM 27.9500 -81.8819 360° North 179 206 9,500  Level Miami Center
01:01PM 27.9978 -81.8864 355° North 179 206 9,500  Level Miami Center
01:02PM 28.0456 -81.8931 353° North 174 200 9,500  Level Miami Center
01:05PM 28.1667 -81.9000 357° North 167 192 9,500  Level Orlando TRACON
01:06PM 28.2000 -81.9167 336° Northwest 170 196 9,500 -60 Level Orlando TRACON
01:07PM 28.2500 -81.9167 360° North 170 196 9,400 -60 Descending Orlando TRACON
01:08PM 28.3000 -81.9167 360° North 167 192 9,400  Level Orlando TRACON
01:09PM 28.3500 -81.9333 344° North 164 189 9,500  Climbing Orlando TRACON
01:10PM 28.3842 -81.9369 355° North 162 186 9,500  Level Jacksonville Center
01:11PM 28.4303 -81.9414 355° North 167 192 9,500  Level Jacksonville Center
01:12PM 28.4825 -81.9408 North 170 196 9,500  Level Jacksonville Center
01:13PM 28.5283 -81.9475 353° North 170 196 9,500  Level Jacksonville Center
01:14PM 28.5764 -81.9564 351° North 170 196 9,500  Level Jacksonville Center
01:15PM 28.6244 -81.9608 355° North 171 197 9,500  Level Jacksonville Center
01:16PM 28.6744 -81.9625 358° North 170 196 9,500  Level Jacksonville Center
01:17PM 28.7247 -81.9717 351° North 166 191 9,500  Level Jacksonville Center
01:18PM 28.7686 -81.9856 344° North 166 191 9,500  Level Jacksonville Center
01:19PM 28.8189 -81.9944 351° North 170 196 9,500 -60 Level Jacksonville Center
01:20PM 28.8583 -82.0011 352° North 170 196 9,400  Descending Jacksonville Center
01:21PM 28.9106 -82.0056 356° North 170 196 9,500  Climbing Jacksonville Center
01:22PM 28.9544 -82.0144 350° North 169 194 9,500  Level Jacksonville Center
01:23PM 29.0047 -82.0261 349° North 167 192 9,500  Level Jacksonville Center
01:24PM 29.0508 -82.0400 345° North 164 189 9,500  Level Jacksonville Center
01:25PM 29.0967 -82.0514 348° North 164 189 9,500  Level Jacksonville Center
01:26PM 29.1428 -82.0700 341° North 163 188 9,500  Level Jacksonville Center
01:27PM 29.1847 -82.0814 347° North 164 189 9,600  Climbing Jacksonville Center
01:28PM 29.2286 -82.0956 344° North 165 190 9,500 -60 Descending Jacksonville Center
01:29PM 29.2744 -82.1117 343° North 165 190 9,500  Level Jacksonville Center
01:30PM 29.3228 -82.1281 344° North 168 193 9,500  Level Jacksonville Center
01:31PM 29.3667 -82.1419 345° North 164 189 9,600  Climbing Jacksonville Center
01:32PM 29.4125 -82.1606 341° North 166 191 9,500 -60 Descending Jacksonville Center
01:33PM 29.4586 -82.1722 348° North 165 190 9,500  Level Jacksonville Center
01:34PM 29.5025 -82.1839 347° North 166 191 9,500  Level Jacksonville Center
01:35PM 29.5506 -82.2050 339° North 165 190 9,500  Level Jacksonville Center
01:36PM 29.5925 -82.2192 344° North 164 189 9,500  Level Jacksonville Center
01:37PM 29.6406 -82.2306 348° North 168 193 9,500  Level Jacksonville Center
01:38PM 29.6844 -82.2353 355° North 168 193 9,500  Level Jacksonville Center
01:39PM 29.7347 -82.2467 349° North 171 197 9,500  Level Jacksonville Center
01:40PM 29.7825 -82.2511 355° North 172 198 9,500  Level Jacksonville Center
01:41PM 29.8328 -82.2581 353° North 171 197 9,500  Level Jacksonville Center
01:42PM 29.8808 -82.2625 355° North 171 197 9,600  Climbing Jacksonville Center
01:43PM 29.9308 -82.2719 351° North 174 200 9,500  Descending Jacksonville Center
01:44PM 29.9853 -82.2764 356° North 177 204 9,600  Climbing Jacksonville Center
01:46PM 30.0333 -82.2831 353° North 173 199 9,500 -60 Descending Jacksonville Center
01:46PM 30.0772 -82.2878 355° North 168 193 9,500  Level Jacksonville Center
01:47PM 30.1231 -82.2947 353° North 168 193 9,500  Level Jacksonville Center
01:48PM 30.1692 -82.2967 358° North 166 191 9,500  Level Jacksonville Center
01:49PM 30.2108 -82.3014 354° North 163 188 9,500  Level Jacksonville Center
01:50PM 30.2569 -82.3058 355° North 167 192 9,600  Climbing Jacksonville Center
01:51PM 30.3050 -82.3153 350° North 169 194 9,600  Level Jacksonville Center
01:52PM 30.3508 -82.3197 355° North 166 191 9,700  Climbing Jacksonville Center
01:53PM 30.4011 -82.3267 353° North 166 191 9,600 -60 Descending Jacksonville Center
01:54PM 30.4492 -82.3358 351° North 168 193 9,600  Level Jacksonville Center
01:55PM 30.4867 -82.3453 348° North 170 196 9,600  Level Jacksonville Center
01:56PM 30.4972 -82.3453 360° North 167 192 9,600  Level Jacksonville Center
01:56PM 30.5306 -82.3522 350° North 170 196 9,600 -120 Level Jacksonville Center
01:56PM 30.5411 -82.3522 360° North 170 196 9,500 -360 Descending Jacksonville Center
01:58PM 30.5911 -82.3617 351° North 177 204 9,200 -540 Descending Jacksonville Center
02:00PM 30.7353 -82.3922 350° North 183 211 7,400 -600 Descending Jacksonville Center
02:01PM 30.7856 -82.4064 346° North 183 211 7,000 -600 Descending Jacksonville Center
02:02PM 30.8356 -82.4256 342° North 183 211 6,300 -600 Descending Jacksonville Center
02:03PM 30.8900 -82.4303 356° North 188 216 5,900 -360 Descending Jacksonville Center
02:04PM 30.9422 -82.4372 353° North 188 216 5,600 -300 Descending Jacksonville Center
02:05PM 30.9944 -82.4394 358° North 188 216 5,400 -120 Descending Jacksonville Center
02:06PM 31.0425 -82.4489 350° North 182 209 5,400  Level Jacksonville Center
02:07PM 31.0906 -82.4583 350° North 177 204 5,500  Climbing Jacksonville Center
02:08PM 31.1406 -82.4581 360° North 177 204 5,500  Level Jacksonville Center
02:09PM 31.1908 -82.4578 360° North 177 204 5,500 -60 Level Jacksonville Center
02:10PM 31.2386 -82.4528 North 177 204 5,400 -60 Descending Jacksonville Center
02:11PM 31.2889 -82.4478 North 177 204 5,400 60 Level Jacksonville Center
02:12PM 31.3389 -82.4475 360° North 177 204 5,600 -60 Climbing Jacksonville Center
02:13PM 31.3933 -82.4447 North 182 209 5,300 -360 Descending Jacksonville Center
02:14PM 31.4475 -82.4347 North 187 215 4,900 -420 Descending Jacksonville Center
02:15PM 31.4997 -82.4200 14° North 193 222 4,500 -420 Descending Jacksonville Center
02:16PM 31.5558 -82.4050 13° North 199 229 4,100 -420 Descending Jacksonville Center
02:17PM 31.6081 -82.3997 North 199 229 3,700 -360 Descending Jacksonville Center
02:18PM 31.6603 -82.3947 North 199 229 3,400 -300 Descending Jacksonville Center
02:19PM 31.7125 -82.3919 North 193 222 3,200 -240 Descending Jacksonville Center
02:20PM 31.7606 -82.3892 North 188 216 3,000 -240 Descending Jacksonville Center
02:21PM 31.8128 -82.3817 North 181 208 2,800 -180 Descending Jacksonville Center
02:22PM 31.8628 -82.3739 North 181 208 2,700 -120 Descending Jacksonville Center
02:23PM 31.9150 -82.3689 North 181 208 2,600 -120 Descending Jacksonville Center
02:24PM 31.9586 -82.3611 North 181 208 2,500 1,440 Descending Jacksonville Center
02:25PM 32.0089 -82.3586 North 181 208 5,500 3,000 Climbing Jacksonville Center